sensor_id;sensor_type;location;lat;lon;timestamp;pressure;altitude;pressure_sealevel;temperature;humidity
47556;BME280;33291;46.222;26.460;2023-12-14T00:00:14;95009.25;;;3.18;100.00
47556;BME280;33291;46.222;26.460;2023-12-14T00:02:39;95018.69;;;3.08;100.00
47556;BME280;33291;46.222;26.460;2023-12-14T00:05:05;95006.75;;;3.07;100.00
47556;BME280;33291;46.222;26.460;2023-12-14T00:07:31;95007.22;;;3.12;100.00
47556;BME280;33291;46.222;26.460;2023-12-14T00:09:56;95023.31;;;3.14;100.00
47556;BME280;33291;46.222;26.460;2023-12-14T00:12:23;95016.78;;;3.10;100.00
47556;BME280;33291;46.222;26.460;2023-12-14T00:14:48;95015.19;;;3.09;100.00
47556;BME280;33291;46.222;26.460;2023-12-14T00:17:14;95026.59;;;3.16;100.00
47556;BME280;33291;46.222;26.460;2023-12-14T00:19:39;95014.53;;;3.16;100.00
47556;BME280;33291;46.222;26.460;2023-12-14T00:22:04;95023.88;;;3.17;100.00
47556;BME280;33291;46.222;26.460;2023-12-14T00:24:30;95022.13;;;3.18;100.00
47556;BME280;33291;46.222;26.460;2023-12-14T00:26:55;95016.16;;;3.17;100.00
47556;BME280;33291;46.222;26.460;2023-12-14T00:29:21;95014.41;;;3.18;100.00
47556;BME280;33291;46.222;26.460;2023-12-14T00:31:46;95009.94;;;3.20;100.00
47556;BME280;33291;46.222;26.460;2023-12-14T00:34:12;95024.69;;;3.18;100.00
47556;BME280;33291;46.222;26.460;2023-12-14T00:36:37;95022.78;;;3.20;100.00
47556;BME280;33291;46.222;26.460;2023-12-14T00:39:04;95022.78;;;3.20;100.00
47556;BME280;33291;46.222;26.460;2023-12-14T00:41:29;95024.50;;;3.10;100.00
47556;BME280;33291;46.222;26.460;2023-12-14T00:43:55;95030.34;;;3.12;100.00
47556;BME280;33291;46.222;26.460;2023-12-14T00:46:20;95010.03;;;3.09;100.00
47556;BME280;33291;46.222;26.460;2023-12-14T00:48:46;95032.00;;;3.13;100.00
47556;BME280;33291;46.222;26.460;2023-12-14T00:51:11;95029.44;;;3.13;100.00
47556;BME280;33291;46.222;26.460;2023-12-14T00:53:37;95029.84;;;3.18;100.00
47556;BME280;33291;46.222;26.460;2023-12-14T00:56:02;95014.78;;;3.13;100.00
47556;BME280;33291;46.222;26.460;2023-12-14T00:58:28;95014.41;;;3.18;100.00
47556;BME280;33291;46.222;26.460;2023-12-14T01:00:53;95016.56;;;3.13;100.00
47556;BME280;33291;46.222;26.460;2023-12-14T01:03:20;94999.31;;;3.03;100.00
47556;BME280;33291;46.222;26.460;2023-12-14T01:05:46;94995.00;;;3.04;100.00
47556;BME280;33291;46.222;26.460;2023-12-14T01:08:11;94996.06;;;3.01;100.00
47556;BME280;33291;46.222;26.460;2023-12-14T01:10:37;94975.31;;;2.93;100.00
47556;BME280;33291;46.222;26.460;2023-12-14T01:13:03;94990.50;;;2.96;100.00
47556;BME280;33291;46.222;26.460;2023-12-14T01:15:28;94978.81;;;2.92;100.00
47556;BME280;33291;46.222;26.460;2023-12-14T01:17:54;94971.25;;;2.91;100.00
47556;BME280;33291;46.222;26.460;2023-12-14T01:20:19;94974.06;;;2.88;100.00
47556;BME280;33291;46.222;26.460;2023-12-14T01:22:45;94983.44;;;2.89;100.00
47556;BME280;33291;46.222;26.460;2023-12-14T01:25:10;94970.44;;;2.90;100.00
47556;BME280;33291;46.222;26.460;2023-12-14T01:27:36;94967.72;;;2.92;100.00
47556;BME280;33291;46.222;26.460;2023-12-14T01:30:01;94976.09;;;2.84;100.00
47556;BME280;33291;46.222;26.460;2023-12-14T01:32:27;94961.06;;;2.79;100.00
47556;BME280;33291;46.222;26.460;2023-12-14T01:34:52;94963.38;;;2.82;100.00
47556;BME280;33291;46.222;26.460;2023-12-14T01:37:18;94955.91;;;2.79;100.00
47556;BME280;33291;46.222;26.460;2023-12-14T01:39:43;94951.13;;;2.75;100.00
47556;BME280;33291;46.222;26.460;2023-12-14T01:42:09;94968.19;;;2.76;100.00
47556;BME280;33291;46.222;26.460;2023-12-14T01:44:34;94967.66;;;2.72;100.00
47556;BME280;33291;46.222;26.460;2023-12-14T01:47:00;94964.25;;;2.72;100.00
47556;BME280;33291;46.222;26.460;2023-12-14T01:49:25;94960.31;;;2.67;100.00
47556;BME280;33291;46.222;26.460;2023-12-14T01:51:51;94952.59;;;2.67;100.00
47556;BME280;33291;46.222;26.460;2023-12-14T01:54:17;94946.50;;;2.69;100.00
47556;BME280;33291;46.222;26.460;2023-12-14T01:56:42;94953.28;;;2.70;100.00
47556;BME280;33291;46.222;26.460;2023-12-14T01:59:07;94954.34;;;2.67;100.00
47556;BME280;33291;46.222;26.460;2023-12-14T02:01:39;94959.63;;;2.65;100.00
47556;BME280;33291;46.222;26.460;2023-12-14T02:04:05;94958.56;;;2.68;100.00
47556;BME280;33291;46.222;26.460;2023-12-14T02:06:34;94935.66;;;2.65;100.00
47556;BME280;33291;46.222;26.460;2023-12-14T02:08:59;94927.81;;;2.66;100.00
47556;BME280;33291;46.222;26.460;2023-12-14T02:11:25;94938.50;;;2.62;100.00
47556;BME280;33291;46.222;26.460;2023-12-14T02:13:50;94935.13;;;2.61;100.00
47556;BME280;33291;46.222;26.460;2023-12-14T02:16:16;94929.97;;;2.61;100.00
47556;BME280;33291;46.222;26.460;2023-12-14T02:18:41;94921.81;;;2.56;100.00
47556;BME280;33291;46.222;26.460;2023-12-14T02:21:07;94910.47;;;2.59;100.00
47556;BME280;33291;46.222;26.460;2023-12-14T02:23:32;94906.53;;;2.55;100.00
47556;BME280;33291;46.222;26.460;2023-12-14T02:25:59;94921.44;;;2.61;100.00
47556;BME280;33291;46.222;26.460;2023-12-14T02:28:24;94918.44;;;2.56;100.00
47556;BME280;33291;46.222;26.460;2023-12-14T02:30:50;94911.81;;;2.53;100.00
47556;BME280;33291;46.222;26.460;2023-12-14T02:33:15;94916.94;;;2.53;100.00
47556;BME280;33291;46.222;26.460;2023-12-14T02:35:42;94918.84;;;2.51;100.00
47556;BME280;33291;46.222;26.460;2023-12-14T02:38:08;94915.81;;;2.46;100.00
47556;BME280;33291;46.222;26.460;2023-12-14T02:40:34;94926.94;;;2.46;100.00
47556;BME280;33291;46.222;26.460;2023-12-14T02:42:59;94912.03;;;2.40;100.00
47556;BME280;33291;46.222;26.460;2023-12-14T02:45:25;94928.53;;;2.47;100.00
47556;BME280;33291;46.222;26.460;2023-12-14T02:47:53;94941.50;;;2.46;100.00
47556;BME280;33291;46.222;26.460;2023-12-14T02:50:19;94939.91;;;2.45;100.00
47556;BME280;33291;46.222;26.460;2023-12-14T02:52:45;94927.19;;;2.43;100.00
47556;BME280;33291;46.222;26.460;2023-12-14T02:55:10;94931.38;;;2.44;100.00
47556;BME280;33291;46.222;26.460;2023-12-14T02:57:36;94931.63;;;2.41;100.00
47556;BME280;33291;46.222;26.460;2023-12-14T03:00:01;94932.59;;;2.40;100.00
47556;BME280;33291;46.222;26.460;2023-12-14T03:02:27;94935.81;;;2.42;100.00
47556;BME280;33291;46.222;26.460;2023-12-14T03:04:56;94943.41;;;2.44;100.00
47556;BME280;33291;46.222;26.460;2023-12-14T03:07:21;94939.91;;;2.45;100.00
47556;BME280;33291;46.222;26.460;2023-12-14T03:09:47;94933.13;;;2.44;100.00
47556;BME280;33291;46.222;26.460;2023-12-14T03:12:12;94930.81;;;2.41;100.00
47556;BME280;33291;46.222;26.460;2023-12-14T03:14:38;94938.16;;;2.45;100.00
47556;BME280;33291;46.222;26.460;2023-12-14T03:17:08;94925.25;;;2.36;100.00
47556;BME280;33291;46.222;26.460;2023-12-14T03:19:40;94932.97;;;2.36;100.00
47556;BME280;33291;46.222;26.460;2023-12-14T03:22:06;94952.56;;;2.37;100.00
47556;BME280;33291;46.222;26.460;2023-12-14T03:24:32;94943.00;;;2.39;100.00
47556;BME280;33291;46.222;26.460;2023-12-14T03:26:58;94930.13;;;2.39;100.00
47556;BME280;33291;46.222;26.460;2023-12-14T03:29:23;94926.06;;;2.36;100.00
47556;BME280;33291;46.222;26.460;2023-12-14T03:31:49;94926.06;;;2.36;100.00
47556;BME280;33291;46.222;26.460;2023-12-14T03:34:14;94913.34;;;2.35;100.00
47556;BME280;33291;46.222;26.460;2023-12-14T03:36:40;94927.00;;;2.35;100.00
47556;BME280;33291;46.222;26.460;2023-12-14T03:39:05;94913.84;;;2.28;100.00
47556;BME280;33291;46.222;26.460;2023-12-14T03:41:31;94932.84;;;2.37;100.00
47556;BME280;33291;46.222;26.460;2023-12-14T03:43:57;94913.59;;;2.31;100.00
47556;BME280;33291;46.222;26.460;2023-12-14T03:46:23;94916.47;;;2.38;100.00
47556;BME280;33291;46.222;26.460;2023-12-14T03:48:49;94920.78;;;2.38;100.00
47556;BME280;33291;46.222;26.460;2023-12-14T03:51:19;94921.97;;;2.34;100.00
47556;BME280;33291;46.222;26.460;2023-12-14T03:53:45;94929.53;;;2.25;100.00
47556;BME280;33291;46.222;26.460;2023-12-14T03:56:11;94889.97;;;2.17;100.00
47556;BME280;33291;46.222;26.460;2023-12-14T03:58:36;94933.28;;;2.21;100.00
47556;BME280;33291;46.222;26.460;2023-12-14T04:01:02;94918.44;;;2.25;100.00
47556;BME280;33291;46.222;26.460;2023-12-14T04:03:28;94922.22;;;2.30;100.00
47556;BME280;33291;46.222;26.460;2023-12-14T04:05:53;94918.44;;;2.25;100.00
47556;BME280;33291;46.222;26.460;2023-12-14T04:08:19;94925.56;;;2.21;100.00
47556;BME280;33291;46.222;26.460;2023-12-14T04:10:44;94905.38;;;2.17;100.00
47556;BME280;33291;46.222;26.460;2023-12-14T04:13:10;94912.59;;;2.23;100.00
47556;BME280;33291;46.222;26.460;2023-12-14T04:15:35;94917.44;;;2.16;100.00
47556;BME280;33291;46.222;26.460;2023-12-14T04:18:01;94912.41;;;2.15;100.00
47556;BME280;33291;46.222;26.460;2023-12-14T04:20:27;94914.16;;;2.14;100.00
47556;BME280;33291;46.222;26.460;2023-12-14T04:22:53;94927.00;;;2.14;100.00
47556;BME280;33291;46.222;26.460;2023-12-14T04:25:18;94930.28;;;2.16;100.00
47556;BME280;33291;46.222;26.460;2023-12-14T04:27:44;94907.84;;;2.18;100.00
47556;BME280;33291;46.222;26.460;2023-12-14T04:30:10;94925.00;;;2.18;100.00
47556;BME280;33291;46.222;26.460;2023-12-14T04:32:37;94911.38;;;2.17;100.00
47556;BME280;33291;46.222;26.460;2023-12-14T04:35:03;94931.66;;;2.20;100.00
47556;BME280;33291;46.222;26.460;2023-12-14T04:37:29;94946.94;;;2.22;100.00
47556;BME280;33291;46.222;26.460;2023-12-14T04:39:56;94948.00;;;2.19;100.00
47556;BME280;33291;46.222;26.460;2023-12-14T04:42:22;94932.13;;;2.14;100.00
47556;BME280;33291;46.222;26.460;2023-12-14T04:44:47;94954.41;;;2.25;100.00
47556;BME280;33291;46.222;26.460;2023-12-14T04:47:13;94951.97;;;2.23;100.00
47556;BME280;33291;46.222;26.460;2023-12-14T04:49:39;94953.03;;;2.21;100.00
47556;BME280;33291;46.222;26.460;2023-12-14T04:52:04;94962.84;;;2.37;100.00
47556;BME280;33291;46.222;26.460;2023-12-14T04:54:30;94953.28;;;2.39;100.00
47556;BME280;33291;46.222;26.460;2023-12-14T04:56:56;94943.66;;;2.41;100.00
47556;BME280;33291;46.222;26.460;2023-12-14T04:59:21;94942.28;;;2.37;100.00
47556;BME280;33291;46.222;26.460;2023-12-14T05:01:47;94966.78;;;2.41;100.00
47556;BME280;33291;46.222;26.460;2023-12-14T05:04:12;94968.84;;;2.47;100.00
47556;BME280;33291;46.222;26.460;2023-12-14T05:06:38;94967.00;;;2.49;100.00
47556;BME280;33291;46.222;26.460;2023-12-14T05:09:04;94963.66;;;2.58;100.00
47556;BME280;33291;46.222;26.460;2023-12-14T05:11:31;94964.06;;;2.63;100.00
47556;BME280;33291;46.222;26.460;2023-12-14T05:13:57;94985.91;;;2.69;100.00
47556;BME280;33291;46.222;26.460;2023-12-14T05:16:23;94977.34;;;2.69;100.00
47556;BME280;33291;46.222;26.460;2023-12-14T05:18:52;94980.63;;;2.71;100.00
47556;BME280;33291;46.222;26.460;2023-12-14T05:21:18;94994.16;;;2.73;100.00
47556;BME280;33291;46.222;26.460;2023-12-14T05:23:44;94984.13;;;2.70;100.00
47556;BME280;33291;46.222;26.460;2023-12-14T05:26:10;94973.47;;;2.74;100.00
47556;BME280;33291;46.222;26.460;2023-12-14T05:28:35;94982.44;;;2.80;100.00
47556;BME280;33291;46.222;26.460;2023-12-14T05:31:01;94993.41;;;2.82;100.00
47556;BME280;33291;46.222;26.460;2023-12-14T05:33:28;94996.16;;;2.90;100.00
47556;BME280;33291;46.222;26.460;2023-12-14T05:35:53;94995.63;;;2.96;100.00
47556;BME280;33291;46.222;26.460;2023-12-14T05:38:19;94987.59;;;2.90;100.00
47556;BME280;33291;46.222;26.460;2023-12-14T05:40:45;95007.28;;;3.00;100.00
47556;BME280;33291;46.222;26.460;2023-12-14T05:43:10;95007.28;;;3.00;100.00
47556;BME280;33291;46.222;26.460;2023-12-14T05:45:36;95015.00;;;3.00;100.00
47556;BME280;33291;46.222;26.460;2023-12-14T05:48:02;95006.34;;;3.01;100.00
47556;BME280;33291;46.222;26.460;2023-12-14T05:50:30;95011.91;;;3.07;100.00
47556;BME280;33291;46.222;26.460;2023-12-14T05:52:56;95016.78;;;3.10;100.00
47556;BME280;33291;46.222;26.460;2023-12-14T05:55:22;95020.88;;;3.12;100.00
47556;BME280;33291;46.222;26.460;2023-12-14T05:57:48;95023.16;;;3.06;100.00
47556;BME280;33291;46.222;26.460;2023-12-14T06:00:14;95023.31;;;3.14;100.00
47556;BME280;33291;46.222;26.460;2023-12-14T06:02:39;95026.34;;;3.19;100.00
47556;BME280;33291;46.222;26.460;2023-12-14T06:05:06;95021.59;;;3.24;100.00
47556;BME280;33291;46.222;26.460;2023-12-14T06:07:32;95033.41;;;3.27;100.00
47556;BME280;33291;46.222;26.460;2023-12-14T06:09:58;95042.47;;;3.31;100.00
47556;BME280;33291;46.222;26.460;2023-12-14T06:12:23;95040.72;;;3.31;100.00
47556;BME280;33291;46.222;26.460;2023-12-14T06:14:48;95037.47;;;3.29;100.00
47556;BME280;33291;46.222;26.460;2023-12-14T06:17:15;95029.47;;;3.32;100.00
47556;BME280;33291;46.222;26.460;2023-12-14T06:19:41;95044.41;;;3.38;100.00
47556;BME280;33291;46.222;26.460;2023-12-14T06:22:07;95042.66;;;3.39;100.00
47556;BME280;33291;46.222;26.460;2023-12-14T06:24:32;95039.25;;;3.38;100.00
47556;BME280;33291;46.222;26.460;2023-12-14T06:26:58;95040.22;;;3.47;100.00
47556;BME280;33291;46.222;26.460;2023-12-14T06:29:23;95032.63;;;3.46;100.00
47556;BME280;33291;46.222;26.460;2023-12-14T06:31:49;95023.97;;;3.47;100.00
47556;BME280;33291;46.222;26.460;2023-12-14T06:34:15;95028.88;;;3.50;100.00
47556;BME280;33291;46.222;26.460;2023-12-14T06:36:46;95052.97;;;3.49;100.00
47556;BME280;33291;46.222;26.460;2023-12-14T06:39:12;95060.31;;;3.53;100.00
47556;BME280;33291;46.222;26.460;2023-12-14T06:41:38;95063.44;;;3.57;100.00
47556;BME280;33291;46.222;26.460;2023-12-14T06:44:04;95066.44;;;3.62;100.00
47556;BME280;33291;46.222;26.460;2023-12-14T06:46:30;95064.66;;;3.63;100.00
47556;BME280;33291;46.222;26.460;2023-12-14T06:48:56;95061.69;;;3.58;100.00
47556;BME280;33291;46.222;26.460;2023-12-14T06:51:22;95034.53;;;3.44;100.00
47556;BME280;33291;46.222;26.460;2023-12-14T06:53:48;95073.63;;;3.68;100.00
47556;BME280;33291;46.222;26.460;2023-12-14T06:56:14;95068.75;;;3.65;100.00
47556;BME280;33291;46.222;26.460;2023-12-14T06:58:41;95070.78;;;3.71;100.00
47556;BME280;33291;46.222;26.460;2023-12-14T07:01:07;95077.41;;;3.64;100.00
47556;BME280;33291;46.222;26.460;2023-12-14T07:03:33;95072.53;;;3.61;100.00
47556;BME280;33291;46.222;26.460;2023-12-14T07:05:59;95086.09;;;3.73;100.00
47556;BME280;33291;46.222;26.460;2023-12-14T07:08:24;95082.06;;;3.80;100.00
47556;BME280;33291;46.222;26.460;2023-12-14T07:10:50;95074.34;;;3.80;100.00
47556;BME280;33291;46.222;26.460;2023-12-14T07:13:16;95083.41;;;3.74;100.00
47556;BME280;33291;46.222;26.460;2023-12-14T07:15:42;95089.94;;;3.79;100.00
47556;BME280;33291;46.222;26.460;2023-12-14T07:18:07;95098.91;;;3.84;100.00
47556;BME280;33291;46.222;26.460;2023-12-14T07:20:33;95102.00;;;3.88;100.00
47556;BME280;33291;46.222;26.460;2023-12-14T07:22:58;95103.91;;;3.86;100.00
47556;BME280;33291;46.222;26.460;2023-12-14T07:25:24;95110.28;;;3.91;100.00
47556;BME280;33291;46.222;26.460;2023-12-14T07:27:49;95104.31;;;3.91;100.00
47556;BME280;33291;46.222;26.460;2023-12-14T07:30:16;95103.38;;;3.92;100.00
47556;BME280;33291;46.222;26.460;2023-12-14T07:32:41;95102.28;;;3.95;100.00
47556;BME280;33291;46.222;26.460;2023-12-14T07:35:07;95110.59;;;3.98;100.00
47556;BME280;33291;46.222;26.460;2023-12-14T07:37:33;95122.78;;;3.96;100.00
47556;BME280;33291;46.222;26.460;2023-12-14T07:39:59;95127.28;;;4.04;100.00
47556;BME280;33291;46.222;26.460;2023-12-14T07:42:24;95126.06;;;4.08;100.00
47556;BME280;33291;46.222;26.460;2023-12-14T07:44:50;95119.84;;;4.11;100.00
47556;BME280;33291;46.222;26.460;2023-12-14T07:47:17;95133.13;;;4.16;100.00
47556;BME280;33291;46.222;26.460;2023-12-14T07:49:42;95130.41;;;4.17;100.00
47556;BME280;33291;46.222;26.460;2023-12-14T07:52:08;95145.75;;;4.19;100.00
47556;BME280;33291;46.222;26.460;2023-12-14T07:54:35;95152.69;;;4.28;100.00
47556;BME280;33291;46.222;26.460;2023-12-14T07:57:00;95147.97;;;4.33;100.00
47556;BME280;33291;46.222;26.460;2023-12-14T07:59:26;95134.53;;;4.39;100.00
47556;BME280;33291;46.222;26.460;2023-12-14T08:01:51;95123.81;;;4.44;100.00
47556;BME280;33291;46.222;26.460;2023-12-14T08:04:17;95131.00;;;4.50;100.00
47556;BME280;33291;46.222;26.460;2023-12-14T08:06:42;95124.78;;;4.53;100.00
47556;BME280;33291;46.222;26.460;2023-12-14T08:09:08;95135.88;;;4.53;100.00
47556;BME280;33291;46.222;26.460;2023-12-14T08:11:34;95142.56;;;4.56;100.00
47556;BME280;33291;46.222;26.460;2023-12-14T08:13:59;95146.47;;;4.60;100.00
47556;BME280;33291;46.222;26.460;2023-12-14T08:16:25;95147.97;;;4.62;100.00
47556;BME280;33291;46.222;26.460;2023-12-14T08:18:50;95150.00;;;4.69;100.00
47556;BME280;33291;46.222;26.460;2023-12-14T08:21:17;95143.78;;;4.71;100.00
47556;BME280;33291;46.222;26.460;2023-12-14T08:23:43;95143.78;;;4.71;100.00
47556;BME280;33291;46.222;26.460;2023-12-14T08:26:09;95158.44;;;4.80;100.00
47556;BME280;33291;46.222;26.460;2023-12-14T08:28:36;95155.72;;;4.82;100.00
47556;BME280;33291;46.222;26.460;2023-12-14T08:31:02;95172.69;;;4.85;100.00
47556;BME280;33291;46.222;26.460;2023-12-14T08:33:30;95163.59;;;4.80;100.00
47556;BME280;33291;46.222;26.460;2023-12-14T08:35:56;95167.94;;;4.90;100.00
47556;BME280;33291;46.222;26.460;2023-12-14T08:38:22;95153.81;;;4.94;100.00
47556;BME280;33291;46.222;26.460;2023-12-14T08:40:47;95146.75;;;4.96;100.00
47556;BME280;33291;46.222;26.460;2023-12-14T08:43:13;95154.47;;;4.96;100.00
47556;BME280;33291;46.222;26.460;2023-12-14T08:45:38;95167.09;;;4.99;100.00
47556;BME280;33291;46.222;26.460;2023-12-14T08:48:04;95172.84;;;5.03;100.00
47556;BME280;33291;46.222;26.460;2023-12-14T08:50:30;95150.25;;;4.95;100.00
47556;BME280;33291;46.222;26.460;2023-12-14T08:52:56;95159.75;;;5.14;100.00
47556;BME280;33291;46.222;26.460;2023-12-14T08:55:24;95153.53;;;5.16;100.00
47556;BME280;33291;46.222;26.460;2023-12-14T08:57:50;95147.38;;;5.18;100.00
47556;BME280;33291;46.222;26.460;2023-12-14T09:00:16;95130.44;;;5.15;100.00
47556;BME280;33291;46.222;26.460;2023-12-14T09:02:43;95133.91;;;5.24;100.00
47556;BME280;33291;46.222;26.460;2023-12-14T09:05:14;95141.41;;;5.27;100.00
47556;BME280;33291;46.222;26.460;2023-12-14T09:07:41;95139.34;;;5.30;100.00
47556;BME280;33291;46.222;26.460;2023-12-14T09:10:07;95148.59;;;5.33;100.00
47556;BME280;33291;46.222;26.460;2023-12-14T09:12:33;95154.16;;;5.38;100.00
47556;BME280;33291;46.222;26.460;2023-12-14T09:15:00;95139.31;;;5.40;100.00
47556;BME280;33291;46.222;26.460;2023-12-14T09:17:26;95153.03;;;5.50;100.00
47556;BME280;33291;46.222;26.460;2023-12-14T09:19:51;95163.75;;;5.56;100.00
47556;BME280;33291;46.222;26.460;2023-12-14T09:22:17;95153.41;;;5.56;100.00
47556;BME280;33291;46.222;26.460;2023-12-14T09:24:43;95154.19;;;5.66;100.00
47556;BME280;33291;46.222;26.460;2023-12-14T09:27:08;95159.91;;;5.69;100.00
47556;BME280;33291;46.222;26.460;2023-12-14T09:29:34;95161.53;;;5.70;100.00
47556;BME280;33291;46.222;26.460;2023-12-14T09:31:59;95148.09;;;5.67;100.00
47556;BME280;33291;46.222;26.460;2023-12-14T09:34:25;95157.94;;;5.81;100.00
47556;BME280;33291;46.222;26.460;2023-12-14T09:36:50;95146.66;;;5.82;100.00
47556;BME280;33291;46.222;26.460;2023-12-14T09:39:16;95141.19;;;5.85;100.00
47556;BME280;33291;46.222;26.460;2023-12-14T09:41:44;95138.19;;;5.90;100.00
47556;BME280;33291;46.222;26.460;2023-12-14T09:44:11;95146.47;;;5.94;100.00
47556;BME280;33291;46.222;26.460;2023-12-14T09:46:38;95141.47;;;5.92;100.00
47556;BME280;33291;46.222;26.460;2023-12-14T09:49:04;95148.09;;;6.04;100.00
47556;BME280;33291;46.222;26.460;2023-12-14T09:51:30;95147.50;;;6.11;100.00
47556;BME280;33291;46.222;26.460;2023-12-14T09:53:56;95148.84;;;6.15;100.00
47556;BME280;33291;46.222;26.460;2023-12-14T09:56:25;95158.75;;;6.19;100.00
47556;BME280;33291;46.222;26.460;2023-12-14T09:58:51;95174.06;;;6.31;100.00
47556;BME280;33291;46.222;26.460;2023-12-14T10:01:26;95182.19;;;6.36;100.00
47556;BME280;33291;46.222;26.460;2023-12-14T10:04:11;95191.31;;;6.40;100.00
47556;BME280;33291;46.222;26.460;2023-12-14T10:06:39;95187.06;;;6.39;100.00
47556;BME280;33291;46.222;26.460;2023-12-14T10:09:04;95186.78;;;6.42;100.00
47556;BME280;33291;46.222;26.460;2023-12-14T10:11:37;95193.44;;;6.45;100.00
47556;BME280;33291;46.222;26.460;2023-12-14T10:14:07;95180.38;;;6.46;100.00
47556;BME280;33291;46.222;26.460;2023-12-14T10:16:42;95176.69;;;6.49;100.00
47556;BME280;33291;46.222;26.460;2023-12-14T10:19:08;95194.06;;;6.56;100.00
47556;BME280;33291;46.222;26.460;2023-12-14T10:21:34;95197.84;;;6.62;100.00
47556;BME280;33291;46.222;26.460;2023-12-14T10:24:00;95193.41;;;6.72;100.00
47556;BME280;33291;46.222;26.460;2023-12-14T10:26:26;95178.31;;;6.68;100.00
47556;BME280;33291;46.222;26.460;2023-12-14T10:28:52;95183.75;;;6.74;100.00
47556;BME280;33291;46.222;26.460;2023-12-14T10:31:18;95196.09;;;6.81;100.00
47556;BME280;33291;46.222;26.460;2023-12-14T10:33:47;95194.00;;;6.84;100.00
47556;BME280;33291;46.222;26.460;2023-12-14T10:36:14;95180.72;;;6.79;100.00
47556;BME280;33291;46.222;26.460;2023-12-14T10:38:41;95195.19;;;6.90;100.00
47556;BME280;33291;46.222;26.460;2023-12-14T10:41:09;95182.75;;;6.93;100.00
47556;BME280;33291;46.222;26.460;2023-12-14T10:43:39;95189.94;;;7.00;100.00
47556;BME280;33291;46.222;26.460;2023-12-14T10:46:07;95196.75;;;7.01;100.00
47556;BME280;33291;46.222;26.460;2023-12-14T10:48:35;95210.34;;;7.03;100.00
47556;BME280;33291;46.222;26.460;2023-12-14T10:51:11;95209.41;;;7.04;100.00
47556;BME280;33291;46.222;26.460;2023-12-14T10:53:38;95218.13;;;7.03;100.00
47556;BME280;33291;46.222;26.460;2023-12-14T10:56:06;95219.91;;;7.02;100.00
47556;BME280;33291;46.222;26.460;2023-12-14T10:59:04;95215.03;;;6.99;100.00
47556;BME280;33291;46.222;26.460;2023-12-14T11:01:32;95214.22;;;6.99;100.00
47556;BME280;33291;46.222;26.460;2023-12-14T11:03:59;95209.34;;;6.96;100.00
47556;BME280;33291;46.222;26.460;2023-12-14T11:08:54;95192.38;;;7.01;100.00
47556;BME280;33291;46.222;26.460;2023-12-14T11:11:21;95186.09;;;7.04;100.00
47556;BME280;33291;46.222;26.460;2023-12-14T11:13:50;95205.69;;;7.06;100.00
47556;BME280;33291;46.222;26.460;2023-12-14T11:16:20;95209.19;;;7.15;100.00
47556;BME280;33291;46.222;26.460;2023-12-14T11:18:46;95212.63;;;7.24;100.00
47556;BME280;33291;46.222;26.460;2023-12-14T11:21:18;95205.53;;;7.44;100.00
47556;BME280;33291;46.222;26.460;2023-12-14T11:23:44;95205.16;;;7.65;100.00
47556;BME280;33291;46.222;26.460;2023-12-14T11:26:10;95208.69;;;7.82;100.00
47556;BME280;33291;46.222;26.460;2023-12-14T11:28:37;95209.72;;;7.97;99.28
47556;BME280;33291;46.222;26.460;2023-12-14T11:31:04;95215.56;;;7.99;100.00
47556;BME280;33291;46.222;26.460;2023-12-14T11:33:34;95211.34;;;7.98;100.00
47556;BME280;33291;46.222;26.460;2023-12-14T11:36:00;95213.28;;;7.96;100.00
47556;BME280;33291;46.222;26.460;2023-12-14T11:38:27;95218.47;;;7.96;100.00
47556;BME280;33291;46.222;26.460;2023-12-14T11:40:52;95207.44;;;7.94;100.00
47556;BME280;33291;46.222;26.460;2023-12-14T11:43:18;95211.63;;;7.95;100.00
47556;BME280;33291;46.222;26.460;2023-12-14T11:45:47;95230.16;;;8.00;100.00
47556;BME280;33291;46.222;26.460;2023-12-14T11:48:13;95237.63;;;8.04;100.00
47556;BME280;33291;46.222;26.460;2023-12-14T11:50:40;95222.41;;;8.09;100.00
47556;BME280;33291;46.222;26.460;2023-12-14T11:53:06;95230.56;;;8.14;99.43
47556;BME280;33291;46.222;26.460;2023-12-14T11:55:34;95234.69;;;8.33;98.73
47556;BME280;33291;46.222;26.460;2023-12-14T11:58:00;95245.16;;;8.49;94.54
47556;BME280;33291;46.222;26.460;2023-12-14T12:00:27;95258.16;;;8.58;95.81
47556;BME280;33291;46.222;26.460;2023-12-14T12:05:43;95285.47;;;8.70;85.06
47556;BME280;33291;46.222;26.460;2023-12-14T12:08:10;95281.44;;;8.76;88.07
47556;BME280;33291;46.222;26.460;2023-12-14T12:10:40;95283.72;;;8.79;88.91
47556;BME280;33291;46.222;26.460;2023-12-14T12:13:20;95292.50;;;8.78;88.92
47556;BME280;33291;46.222;26.460;2023-12-14T12:15:46;95289.25;;;8.84;78.98
47556;BME280;33291;46.222;26.460;2023-12-14T12:18:14;95298.06;;;9.07;77.32
47556;BME280;33291;46.222;26.460;2023-12-14T12:20:40;95294.34;;;9.18;73.94
47556;BME280;33291;46.222;26.460;2023-12-14T12:23:06;95315.84;;;9.45;70.98
47556;BME280;33291;46.222;26.460;2023-12-14T12:25:32;95321.06;;;9.62;69.34
47556;BME280;33291;46.222;26.460;2023-12-14T12:27:59;95317.47;;;9.54;72.42
47556;BME280;33291;46.222;26.460;2023-12-14T12:30:25;95313.09;;;9.38;76.18
47556;BME280;33291;46.222;26.460;2023-12-14T12:32:51;95324.72;;;9.26;78.84
47556;BME280;33291;46.222;26.460;2023-12-14T12:35:21;95319.69;;;9.16;78.36
47556;BME280;33291;46.222;26.460;2023-12-14T12:37:47;95341.13;;;9.10;81.11
47556;BME280;33291;46.222;26.460;2023-12-14T12:40:21;95350.66;;;9.01;79.79
47556;BME280;33291;46.222;26.460;2023-12-14T12:42:48;95361.34;;;8.90;86.50
47556;BME280;33291;46.222;26.460;2023-12-14T12:45:15;95370.22;;;8.79;83.78
47556;BME280;33291;46.222;26.460;2023-12-14T12:47:42;95354.66;;;8.79;78.14
47556;BME280;33291;46.222;26.460;2023-12-14T12:50:07;95370.41;;;8.86;79.04